TimeCDT,TemperatureF,Dew PointF,Humidity,Sea Level PressureIn,VisibilityMPH,Wind Direction,Wind SpeedMPH,Gust SpeedMPH,PrecipitationIn,Events,Conditions,WindDirDegrees,DateUTC
12:51 AM,69.1,61.0,75,30.16,10.0,East,5.8,-,N/A,,Partly Cloudy,90,2013-08-18 05:51:00
1:51 AM,69.1,60.1,73,30.16,10.0,ENE,4.6,-,N/A,,Partly Cloudy,70,2013-08-18 06:51:00
2:51 AM,68.0,61.0,78,30.15,10.0,East,4.6,-,N/A,,Clear,80,2013-08-18 07:51:00
3:51 AM,68.0,61.0,78,30.15,8.0,Calm,Calm,-,N/A,,Clear,0,2013-08-18 08:51:00
4:51 AM,66.0,60.1,81,30.15,8.0,Calm,Calm,-,N/A,,Clear,0,2013-08-18 09:51:00
5:51 AM,64.0,59.0,84,30.17,8.0,Calm,Calm,-,N/A,,Clear,0,2013-08-18 10:51:00
6:51 AM,63.0,59.0,87,30.18,10.0,Calm,Calm,-,N/A,,Clear,0,2013-08-18 11:51:00
7:51 AM,70.0,61.0,73,30.19,10.0,Calm,Calm,-,N/A,,Clear,0,2013-08-18 12:51:00
8:51 AM,73.9,57.9,57,30.19,10.0,Calm,Calm,-,N/A,,Clear,0,2013-08-18 13:51:00
9:51 AM,75.9,55.0,48,30.19,10.0,East,3.5,-,N/A,,Partly Cloudy,100,2013-08-18 14:51:00
10:51 AM,77.0,55.0,47,30.18,10.0,East,8.1,-,N/A,,Scattered Clouds,100,2013-08-18 15:51:00
11:51 AM,78.1,54.0,43,30.17,10.0,Variable,6.9,-,N/A,,Scattered Clouds,0,2013-08-18 16:51:00
12:51 PM,79.0,55.0,44,30.15,10.0,East,8.1,-,N/A,,Scattered Clouds,80,2013-08-18 17:51:00
1:51 PM,80.1,55.0,42,30.14,10.0,NE,9.2,18.4,N/A,,Partly Cloudy,40,2013-08-18 18:51:00
2:51 PM,80.1,54.0,40,30.12,10.0,ENE,10.4,-,N/A,,Partly Cloudy,70,2013-08-18 19:51:00
3:51 PM,81.0,54.0,39,30.11,10.0,NE,6.9,-,N/A,,Partly Cloudy,40,2013-08-18 20:51:00
4:51 PM,79.0,54.0,42,30.09,10.0,East,9.2,-,N/A,,Partly Cloudy,100,2013-08-18 21:51:00
5:51 PM,78.1,54.0,43,30.09,10.0,East,6.9,-,N/A,,Scattered Clouds,90,2013-08-18 22:51:00
6:51 PM,75.9,54.0,46,30.09,10.0,ENE,9.2,-,N/A,,Scattered Clouds,70,2013-08-18 23:51:00
7:51 PM,75.0,55.0,50,30.09,10.0,East,6.9,-,N/A,,Scattered Clouds,90,2013-08-19 00:51:00
8:51 PM,73.0,57.0,57,30.10,10.0,East,6.9,-,N/A,,Clear,90,2013-08-19 01:51:00
9:51 PM,72.0,59.0,64,30.11,10.0,East,4.6,-,N/A,,Clear,100,2013-08-19 02:51:00
10:51 PM,71.1,60.1,68,30.11,10.0,ESE,4.6,-,N/A,,Clear,110,2013-08-19 03:51:00
11:51 PM,70.0,61.0,73,30.10,10.0,ESE,4.6,-,N/A,,Clear,120,2013-08-19 04:51:00